Time,TemperatureF,DewpointF,PressureIn,WindDirection,WindDirectionDegrees,WindSpeedMPH,WindSpeedGustMPH,Humidity,HourlyPrecipIn,Conditions,Clouds,dailyrainin,SoftwareType,DateUTC
2013-04-26 00:00:00,42.9,33.1,30.32,West,279,0.0,0.0,68,0.00,,---,0.00,VWS V14.01,2013-04-26 04:00:00,
2013-04-26 00:01:00,42.9,33.4,30.32,West,279,0.0,0.0,69,0.00,,---,0.00,VWS V14.01,2013-04-26 04:01:00,
2013-04-26 00:06:00,42.6,33.2,30.32,West,279,0.0,0.0,69,0.00,,---,0.00,VWS V14.01,2013-04-26 04:06:00,
2013-04-26 00:11:00,42.4,33.0,30.32,West,279,0.0,0.0,69,0.00,,---,0.00,VWS V14.01,2013-04-26 04:11:00,
2013-04-26 00:16:00,42.2,33.1,30.32,West,279,0.0,0.0,70,0.00,,---,0.00,VWS V14.01,2013-04-26 04:16:00,
2013-04-26 00:21:00,42.0,32.6,30.32,West,279,0.0,0.0,69,0.00,,---,0.00,VWS V14.01,2013-04-26 04:21:00,
2013-04-26 00:26:00,41.9,32.8,30.32,West,279,0.0,0.0,70,0.00,,---,0.00,VWS V14.01,2013-04-26 04:26:00,
2013-04-26 00:31:00,41.7,32.7,30.33,West,279,0.0,0.0,70,0.00,,---,0.00,VWS V14.01,2013-04-26 04:31:00,
2013-04-26 00:36:00,41.5,32.8,30.33,West,279,0.0,0.0,71,0.00,,---,0.00,VWS V14.01,2013-04-26 04:36:00,
2013-04-26 00:41:00,41.3,32.6,30.33,West,279,0.0,0.0,71,0.00,,---,0.00,VWS V14.01,2013-04-26 04:41:00,
2013-04-26 00:46:00,41.1,32.4,30.33,West,279,0.0,0.0,71,0.00,,---,0.00,VWS V14.01,2013-04-26 04:46:00,
2013-04-26 00:51:00,40.9,32.6,30.33,West,279,0.0,0.0,72,0.00,,---,0.00,VWS V14.01,2013-04-26 04:51:00,
2013-04-26 00:56:00,40.7,32.4,30.33,West,279,0.0,0.0,72,0.00,,---,0.00,VWS V14.01,2013-04-26 04:56:00,
2013-04-26 01:01:00,40.6,32.3,30.33,West,279,0.0,0.0,72,0.00,,---,0.00,VWS V14.01,2013-04-26 05:01:00,
2013-04-26 01:06:00,40.4,32.4,30.33,West,279,0.0,0.0,73,0.00,,---,0.00,VWS V14.01,2013-04-26 05:06:00,
2013-04-26 01:11:00,40.1,32.2,30.34,West,279,0.0,0.0,73,0.00,,---,0.00,VWS V14.01,2013-04-26 05:11:00,
2013-04-26 01:16:00,40.0,32.4,30.34,West,279,0.0,0.0,74,0.00,,---,0.00,VWS V14.01,2013-04-26 05:16:00,
2013-04-26 01:21:00,39.7,32.4,30.34,West,279,0.0,0.0,75,0.00,,---,0.00,VWS V14.01,2013-04-26 05:21:00,
2013-04-26 01:26:00,39.5,32.2,30.34,West,279,0.0,0.0,75,0.00,,---,0.00,VWS V14.01,2013-04-26 05:26:00,
2013-04-26 01:31:00,39.2,32.0,30.34,West,279,0.0,0.0,75,0.00,,---,0.00,VWS V14.01,2013-04-26 05:31:00,
2013-04-26 01:36:00,39.1,32.2,30.34,West,279,0.0,1.0,76,0.00,,---,0.00,VWS V14.01,2013-04-26 05:36:00,
2013-04-26 01:41:00,38.9,32.3,30.35,West,279,1.0,2.0,77,0.00,,---,0.00,VWS V14.01,2013-04-26 05:41:00,
2013-04-26 01:46:00,38.8,32.2,30.35,West,279,0.0,2.0,77,0.00,,---,0.00,VWS V14.01,2013-04-26 05:46:00,
2013-04-26 01:51:00,38.7,32.4,30.35,West,279,0.0,1.0,78,0.00,,---,0.00,VWS V14.01,2013-04-26 05:51:00,
2013-04-26 01:56:00,39.0,33.7,30.35,NNW,333,2.0,2.0,81,0.00,,---,0.00,VWS V14.01,2013-04-26 05:56:00,
2013-04-26 02:01:00,39.5,33.5,30.35,WNW,294,1.0,1.0,79,0.00,,---,0.00,VWS V14.01,2013-04-26 06:01:00,
2013-04-26 02:06:00,39.5,33.5,30.35,WNW,294,2.0,2.0,79,0.00,,---,0.00,VWS V14.01,2013-04-26 06:06:00,
2013-04-26 02:11:00,39.6,34.0,30.36,WNW,294,1.0,2.0,80,0.00,,---,0.00,VWS V14.01,2013-04-26 06:11:00,
2013-04-26 02:16:00,39.6,34.0,30.36,WNW,294,0.0,0.0,80,0.00,,---,0.00,VWS V14.01,2013-04-26 06:16:00,
2013-04-26 02:21:00,39.6,34.0,30.36,WNW,294,0.0,0.0,80,0.00,,---,0.00,VWS V14.01,2013-04-26 06:21:00,
2013-04-26 02:26:00,39.5,33.5,30.36,WNW,294,0.0,0.0,79,0.00,,---,0.00,VWS V14.01,2013-04-26 06:26:00,
2013-04-26 02:31:00,39.5,33.5,30.36,WNW,294,1.0,1.0,79,0.00,,---,0.00,VWS V14.01,2013-04-26 06:31:00,
2013-04-26 02:36:00,39.5,34.2,30.36,WNW,294,0.0,0.0,81,0.00,,---,0.00,VWS V14.01,2013-04-26 06:36:00,
2013-04-26 02:41:00,39.8,34.8,30.36,WNW,294,2.0,2.0,82,0.00,,---,0.00,VWS V14.01,2013-04-26 06:41:00,
2013-04-26 02:46:00,40.2,34.8,30.36,SSE,157,0.0,1.0,81,0.00,,---,0.00,VWS V14.01,2013-04-26 06:46:00,
2013-04-26 02:51:00,40.3,34.9,30.36,SSE,157,2.0,2.0,81,0.00,,---,0.00,VWS V14.01,2013-04-26 06:51:00,
2013-04-26 02:56:00,40.2,34.8,30.36,SSE,157,0.0,0.0,81,0.00,,---,0.00,VWS V14.01,2013-04-26 06:56:00,
2013-04-26 03:01:00,40.1,34.8,30.36,SSE,157,0.0,0.0,81,0.00,,---,0.00,VWS V14.01,2013-04-26 07:01:00,
2013-04-26 03:06:00,39.9,34.5,30.36,SSE,157,0.0,0.0,81,0.00,,---,0.00,VWS V14.01,2013-04-26 07:06:00,
2013-04-26 03:11:00,39.6,34.3,30.36,SSE,157,0.0,0.0,81,0.00,,---,0.00,VWS V14.01,2013-04-26 07:11:00,
2013-04-26 03:16:00,39.2,33.9,30.36,SSE,157,0.0,0.0,81,0.00,,---,0.00,VWS V14.01,2013-04-26 07:16:00,
2013-04-26 03:21:00,38.9,33.9,30.36,SSE,157,0.0,0.0,82,0.00,,---,0.00,VWS V14.01,2013-04-26 07:21:00,
2013-04-26 03:26:00,38.7,33.7,30.36,SSE,157,0.0,0.0,82,0.00,,---,0.00,VWS V14.01,2013-04-26 07:26:00,
2013-04-26 03:31:00,38.5,33.5,30.36,SSE,157,0.0,0.0,82,0.00,,---,0.00,VWS V14.01,2013-04-26 07:31:00,
2013-04-26 03:36:00,38.4,33.4,30.36,SSE,157,0.0,0.0,82,0.00,,---,0.00,VWS V14.01,2013-04-26 07:36:00,
2013-04-26 03:41:00,38.4,33.4,30.37,SSE,157,0.0,0.0,82,0.00,,---,0.00,VWS V14.01,2013-04-26 07:41:00,
2013-04-26 03:46:00,38.2,32.9,30.37,SSE,157,0.0,0.0,81,0.00,,---,0.00,VWS V14.01,2013-04-26 07:46:00,
2013-04-26 03:51:00,38.2,32.9,30.37,SSE,157,0.0,0.0,81,0.00,,---,0.00,VWS V14.01,2013-04-26 07:51:00,
2013-04-26 03:56:00,38.1,32.8,30.37,West,272,0.0,0.0,81,0.00,,---,0.00,VWS V14.01,2013-04-26 07:56:00,
2013-04-26 04:01:00,38.0,33.0,30.37,West,272,0.0,0.0,82,0.00,,---,0.00,VWS V14.01,2013-04-26 08:01:00,
2013-04-26 04:06:00,37.9,32.9,30.37,West,272,0.0,0.0,82,0.00,,---,0.00,VWS V14.01,2013-04-26 08:06:00,
2013-04-26 04:11:00,37.8,32.8,30.37,West,273,0.0,0.0,82,0.00,,---,0.00,VWS V14.01,2013-04-26 08:11:00,
2013-04-26 04:16:00,37.6,32.9,30.38,West,272,0.0,0.0,83,0.00,,---,0.00,VWS V14.01,2013-04-26 08:16:00,
2013-04-26 04:21:00,37.5,32.8,30.38,West,272,0.0,0.0,83,0.00,,---,0.00,VWS V14.01,2013-04-26 08:21:00,
2013-04-26 04:26:00,37.4,33.0,30.37,West,273,0.0,0.0,84,0.00,,---,0.00,VWS V14.01,2013-04-26 08:26:00,
2013-04-26 04:31:00,37.3,32.9,30.38,West,272,0.0,0.0,84,0.00,,---,0.00,VWS V14.01,2013-04-26 08:31:00,
2013-04-26 04:36:00,37.2,32.8,30.38,West,272,0.0,0.0,84,0.00,,---,0.00,VWS V14.01,2013-04-26 08:36:00,
2013-04-26 04:41:00,37.1,33.0,30.38,West,272,0.0,0.0,85,0.00,,---,0.00,VWS V14.01,2013-04-26 08:41:00,
2013-04-26 04:45:00,36.9,32.8,30.39,West,272,0.0,0.0,85,0.00,,---,0.00,VWS V14.01,2013-04-26 08:45:00,
2013-04-26 04:50:00,36.9,33.1,30.39,West,272,0.0,0.0,86,0.00,,---,0.00,VWS V14.01,2013-04-26 08:50:00,
2013-04-26 04:55:00,36.8,33.0,30.39,West,272,0.0,0.0,86,0.00,,---,0.00,VWS V14.01,2013-04-26 08:55:00,
2013-04-26 05:00:00,36.7,32.9,30.39,West,272,0.0,0.0,86,0.00,,---,0.00,VWS V14.01,2013-04-26 09:00:00,
2013-04-26 05:05:00,36.6,33.1,30.39,West,272,0.0,0.0,87,0.00,,---,0.00,VWS V14.01,2013-04-26 09:05:00,
2013-04-26 05:10:00,36.5,33.0,30.39,West,272,0.0,0.0,87,0.00,,---,0.00,VWS V14.01,2013-04-26 09:10:00,
2013-04-26 05:15:00,36.3,32.5,30.40,West,272,0.0,0.0,86,0.00,,---,0.00,VWS V14.01,2013-04-26 09:15:00,
2013-04-26 05:20:00,36.2,32.7,30.39,West,272,0.0,0.0,87,0.00,,---,0.00,VWS V14.01,2013-04-26 09:20:00,
2013-04-26 05:25:00,36.0,32.8,30.40,West,273,0.0,0.0,88,0.00,,---,0.00,VWS V14.01,2013-04-26 09:25:00,
2013-04-26 05:30:00,35.9,32.7,30.39,West,272,0.0,0.0,88,0.00,,---,0.00,VWS V14.01,2013-04-26 09:30:00,
2013-04-26 05:35:00,35.9,32.7,30.40,West,272,0.0,0.0,88,0.00,,---,0.00,VWS V14.01,2013-04-26 09:35:00,
2013-04-26 05:40:00,35.8,32.9,30.40,West,272,0.0,0.0,89,0.00,,---,0.00,VWS V14.01,2013-04-26 09:40:00,
2013-04-26 05:45:00,35.6,32.7,30.40,West,272,0.0,0.0,89,0.00,,---,0.00,VWS V14.01,2013-04-26 09:45:00,
2013-04-26 05:50:00,35.5,32.6,30.40,West,272,0.0,0.0,89,0.00,,---,0.00,VWS V14.01,2013-04-26 09:50:00,
2013-04-26 05:55:00,35.4,32.5,30.40,West,272,0.0,0.0,89,0.00,,---,0.00,VWS V14.01,2013-04-26 09:55:00,
2013-04-26 06:00:00,35.3,32.4,30.41,West,272,0.0,0.0,89,0.00,,---,0.00,VWS V14.01,2013-04-26 10:00:00,
2013-04-26 06:05:00,35.2,32.3,30.41,West,272,0.0,0.0,89,0.00,,---,0.00,VWS V14.01,2013-04-26 10:05:00,
2013-04-26 06:10:00,35.0,32.1,30.41,West,272,0.0,0.0,89,0.00,,---,0.00,VWS V14.01,2013-04-26 10:10:00,
2013-04-26 06:15:00,34.7,31.8,30.42,West,272,0.0,0.0,89,0.00,,---,0.00,VWS V14.01,2013-04-26 10:15:00,
2013-04-26 06:20:00,34.6,32.0,30.42,West,272,0.0,0.0,90,0.00,,---,0.00,VWS V14.01,2013-04-26 10:20:00,
2013-04-26 06:25:00,34.5,32.2,30.42,West,272,0.0,0.0,91,0.00,,---,0.00,VWS V14.01,2013-04-26 10:25:00,
2013-04-26 06:30:00,34.4,32.0,30.42,West,272,0.0,0.0,91,0.00,,---,0.00,VWS V14.01,2013-04-26 10:30:00,
2013-04-26 06:35:00,34.4,32.3,30.42,West,272,0.0,0.0,92,0.00,,---,0.00,VWS V14.01,2013-04-26 10:35:00,
2013-04-26 06:40:00,34.4,32.3,30.43,West,273,0.0,0.0,92,0.00,,---,0.00,VWS V14.01,2013-04-26 10:40:00,
2013-04-26 06:45:00,34.4,32.3,30.43,West,272,0.0,0.0,92,0.00,,---,0.00,VWS V14.01,2013-04-26 10:45:00,
2013-04-26 06:50:00,34.3,32.2,30.43,West,272,0.0,0.0,92,0.00,,---,0.00,VWS V14.01,2013-04-26 10:50:00,
2013-04-26 06:55:00,34.3,32.2,30.43,West,272,0.0,0.0,92,0.00,,---,0.00,VWS V14.01,2013-04-26 10:55:00,
2013-04-26 07:00:00,34.2,32.1,30.44,West,272,0.0,0.0,92,0.00,,---,0.00,VWS V14.01,2013-04-26 11:00:00,
2013-04-26 07:05:00,34.3,32.5,30.44,West,272,0.0,0.0,93,0.00,,---,0.00,VWS V14.01,2013-04-26 11:05:00,
2013-04-26 07:10:00,34.5,32.7,30.44,West,272,0.0,0.0,93,0.00,,---,0.00,VWS V14.01,2013-04-26 11:10:00,
2013-04-26 07:15:00,34.6,32.8,30.44,West,272,0.0,0.0,93,0.00,,---,0.00,VWS V14.01,2013-04-26 11:15:00,
2013-04-26 07:20:00,34.7,32.9,30.45,West,272,0.0,0.0,93,0.00,,---,0.00,VWS V14.01,2013-04-26 11:20:00,
2013-04-26 07:25:00,34.9,33.1,30.45,West,272,0.0,0.0,93,0.00,,---,0.00,VWS V14.01,2013-04-26 11:25:00,
2013-04-26 07:30:00,35.1,33.3,30.45,West,272,0.0,0.0,93,0.00,,---,0.00,VWS V14.01,2013-04-26 11:30:00,
2013-04-26 07:35:00,35.2,33.4,30.45,West,273,0.0,0.0,93,0.00,,---,0.00,VWS V14.01,2013-04-26 11:35:00,
2013-04-26 07:40:00,35.5,34.0,30.45,West,273,1.0,2.0,94,0.00,,---,0.00,VWS V14.01,2013-04-26 11:40:00,
2013-04-26 07:45:00,35.9,34.1,30.45,West,273,0.0,0.0,93,0.00,,---,0.00,VWS V14.01,2013-04-26 11:45:00,
2013-04-26 07:50:00,36.1,34.3,30.45,West,273,0.0,0.0,93,0.00,,---,0.00,VWS V14.01,2013-04-26 11:50:00,
2013-04-26 07:55:00,36.3,34.5,30.46,West,273,0.0,0.0,93,0.00,,---,0.00,VWS V14.01,2013-04-26 11:55:00,
2013-04-26 08:00:00,36.5,34.4,30.46,West,273,0.0,0.0,92,0.00,,---,0.00,VWS V14.01,2013-04-26 12:00:00,
2013-04-26 08:05:00,37.1,35.0,30.46,West,273,0.0,1.0,92,0.00,,---,0.00,VWS V14.01,2013-04-26 12:05:00,
2013-04-26 08:10:00,38.0,35.6,30.46,West,273,0.0,0.0,91,0.00,,---,0.00,VWS V14.01,2013-04-26 12:10:00,
2013-04-26 08:15:00,38.8,36.1,30.46,West,273,0.0,1.0,90,0.00,,---,0.00,VWS V14.01,2013-04-26 12:15:00,
2013-04-26 08:20:00,39.6,36.3,30.46,West,273,1.0,2.0,88,0.00,,---,0.00,VWS V14.01,2013-04-26 12:20:00,
2013-04-26 08:25:00,40.2,36.7,30.46,West,273,1.0,1.0,87,0.00,,---,0.00,VWS V14.01,2013-04-26 12:25:00,
2013-04-26 08:30:00,40.9,37.0,30.46,West,273,2.0,2.0,86,0.00,,---,0.00,VWS V14.01,2013-04-26 12:30:00,
2013-04-26 08:35:00,41.6,36.8,30.46,West,273,0.0,0.0,83,0.00,,---,0.00,VWS V14.01,2013-04-26 12:35:00,
2013-04-26 08:40:00,42.3,37.2,30.46,West,273,0.0,1.0,82,0.00,,---,0.00,VWS V14.01,2013-04-26 12:40:00,
2013-04-26 08:45:00,43.0,37.6,30.46,West,273,1.0,2.0,81,0.00,,---,0.00,VWS V14.01,2013-04-26 12:45:00,
2013-04-26 08:50:00,43.5,38.1,30.46,West,273,0.0,1.0,81,0.00,,---,0.00,VWS V14.01,2013-04-26 12:50:00,
2013-04-26 08:55:00,44.4,38.3,30.47,West,273,2.0,2.0,79,0.00,,---,0.00,VWS V14.01,2013-04-26 12:55:00,
2013-04-26 09:00:00,45.0,37.9,30.47,West,278,1.0,1.0,76,0.00,,---,0.00,VWS V14.01,2013-04-26 13:00:00,
2013-04-26 09:05:00,45.4,38.6,30.47,West,278,1.0,1.0,77,0.00,,---,0.00,VWS V14.01,2013-04-26 13:05:00,
2013-04-26 09:10:00,46.1,38.6,30.47,West,278,1.0,1.0,75,0.00,,---,0.00,VWS V14.01,2013-04-26 13:10:00,
2013-04-26 09:15:00,46.7,39.5,30.47,West,278,1.0,1.0,76,0.00,,---,0.00,VWS V14.01,2013-04-26 13:15:00,
2013-04-26 09:20:00,47.4,39.2,30.47,West,279,2.0,2.0,73,0.00,,---,0.00,VWS V14.01,2013-04-26 13:20:00,
2013-04-26 09:25:00,47.9,39.0,30.47,West,278,1.0,2.0,71,0.00,,---,0.00,VWS V14.01,2013-04-26 13:25:00,
2013-04-26 09:30:00,48.5,37.7,30.47,NW,309,0.0,1.0,66,0.00,,---,0.00,VWS V14.01,2013-04-26 13:30:00,
2013-04-26 09:35:00,48.5,36.9,30.47,NW,309,1.0,1.0,64,0.00,,---,0.00,VWS V14.01,2013-04-26 13:35:00,
2013-04-26 09:40:00,48.5,36.5,30.47,NW,309,1.0,2.0,63,0.00,,---,0.00,VWS V14.01,2013-04-26 13:40:00,
2013-04-26 09:45:00,48.7,36.7,30.47,NW,309,0.0,1.0,63,0.00,,---,0.00,VWS V14.01,2013-04-26 13:45:00,
2013-04-26 09:50:00,49.2,38.3,30.47,NW,309,0.0,1.0,66,0.00,,---,0.00,VWS V14.01,2013-04-26 13:50:00,
2013-04-26 09:55:00,50.3,39.4,30.47,NW,309,0.0,0.0,66,0.00,,---,0.00,VWS V14.01,2013-04-26 13:55:00,
2013-04-26 10:00:00,51.0,38.0,30.47,SE,127,3.0,3.0,61,0.00,,---,0.00,VWS V14.01,2013-04-26 14:00:00,
2013-04-26 10:05:00,51.0,37.2,30.46,South,178,4.0,4.0,59,0.00,,---,0.00,VWS V14.01,2013-04-26 14:05:00,
2013-04-26 10:10:00,51.4,37.1,30.46,ESE,118,0.0,1.0,58,0.00,,---,0.00,VWS V14.01,2013-04-26 14:10:00,
2013-04-26 10:15:00,51.8,37.9,30.46,NE,46,2.0,3.0,59,0.00,,---,0.00,VWS V14.01,2013-04-26 14:15:00,
2013-04-26 10:20:00,52.0,38.6,30.46,West,264,5.0,5.0,60,0.00,,---,0.00,VWS V14.01,2013-04-26 14:20:00,
2013-04-26 10:25:00,52.6,37.8,30.46,ESE,115,4.0,8.0,57,0.00,,---,0.00,VWS V14.01,2013-04-26 14:25:00,
2013-04-26 10:30:00,52.3,36.2,30.46,NE,38,1.0,1.0,54,0.00,,---,0.00,VWS V14.01,2013-04-26 14:30:00,
2013-04-26 10:35:00,52.8,38.0,30.46,WSW,257,0.0,1.0,57,0.00,,---,0.00,VWS V14.01,2013-04-26 14:35:00,
2013-04-26 10:40:00,53.6,36.4,30.46,WSW,257,0.0,0.0,52,0.00,,---,0.00,VWS V14.01,2013-04-26 14:40:00,
2013-04-26 10:45:00,53.2,35.6,30.47,NNW,330,1.0,2.0,51,0.00,,---,0.00,VWS V14.01,2013-04-26 14:45:00,
2013-04-26 10:50:00,52.5,35.4,30.47,East,86,0.0,3.0,52,0.00,,---,0.00,VWS V14.01,2013-04-26 14:50:00,
2013-04-26 10:55:00,52.7,34.6,30.47,NNW,348,0.0,1.0,50,0.00,,---,0.00,VWS V14.01,2013-04-26 14:55:00,
2013-04-26 11:00:00,53.2,34.5,30.47,North,355,3.0,4.0,49,0.00,,---,0.00,VWS V14.01,2013-04-26 15:00:00,
2013-04-26 11:05:00,53.1,37.8,30.47,WNW,298,3.0,4.0,56,0.00,,---,0.00,VWS V14.01,2013-04-26 15:05:00,
2013-04-26 11:10:00,53.5,34.3,30.47,ENE,70,3.0,5.0,48,0.00,,---,0.00,VWS V14.01,2013-04-26 15:10:00,
2013-04-26 11:15:00,53.2,34.0,30.47,North,360,0.0,2.0,48,0.00,,---,0.00,VWS V14.01,2013-04-26 15:15:00,
2013-04-26 11:20:00,53.1,34.0,30.47,SW,228,3.0,3.0,48,0.00,,---,0.00,VWS V14.01,2013-04-26 15:20:00,
2013-04-26 11:25:00,53.7,36.0,30.46,WNW,297,1.0,1.0,51,0.00,,---,0.00,VWS V14.01,2013-04-26 15:25:00,
2013-04-26 11:30:00,54.6,37.8,30.45,SSW,197,1.0,1.0,53,0.00,,---,0.00,VWS V14.01,2013-04-26 15:30:00,
2013-04-26 11:35:00,55.1,35.2,30.45,SE,124,4.0,5.0,47,0.00,,---,0.00,VWS V14.01,2013-04-26 15:35:00,
2013-04-26 11:40:00,55.4,38.1,30.45,South,187,2.0,3.0,52,0.00,,---,0.00,VWS V14.01,2013-04-26 15:40:00,
2013-04-26 11:45:00,55.7,38.4,30.45,SSW,193,3.0,5.0,52,0.00,,---,0.00,VWS V14.01,2013-04-26 15:45:00,
2013-04-26 11:50:00,56.3,38.9,30.44,SSW,193,0.0,1.0,52,0.00,,---,0.00,VWS V14.01,2013-04-26 15:50:00,
2013-04-26 11:55:00,56.7,37.8,30.44,SSW,208,1.0,2.0,49,0.00,,---,0.00,VWS V14.01,2013-04-26 15:55:00,
2013-04-26 12:00:00,57.2,38.8,30.44,WNW,284,1.0,4.0,50,0.00,,---,0.00,VWS V14.01,2013-04-26 16:00:00,
2013-04-26 12:05:00,57.4,37.9,30.43,SSE,162,3.0,4.0,48,0.00,,---,0.00,VWS V14.01,2013-04-26 16:05:00,
2013-04-26 12:10:00,57.4,39.9,30.43,SW,214,3.0,5.0,52,0.00,,---,0.00,VWS V14.01,2013-04-26 16:10:00,
2013-04-26 12:15:00,57.5,35.8,30.43,ESE,105,1.0,5.0,44,0.00,,---,0.00,VWS V14.01,2013-04-26 16:15:00,
2013-04-26 12:20:00,57.8,39.8,30.43,SSW,204,2.0,5.0,51,0.00,,---,0.00,VWS V14.01,2013-04-26 16:20:00,
2013-04-26 12:25:00,57.9,35.0,30.44,South,184,2.0,4.0,42,0.00,,---,0.00,VWS V14.01,2013-04-26 16:25:00,
2013-04-26 12:30:00,58.1,38.5,30.44,SE,136,5.0,5.0,48,0.00,,---,0.00,VWS V14.01,2013-04-26 16:30:00,
2013-04-26 12:35:00,57.2,35.5,30.43,South,172,0.0,2.0,44,0.00,,---,0.00,VWS V14.01,2013-04-26 16:35:00,
2013-04-26 12:40:00,57.1,37.1,30.43,SSW,194,3.0,3.0,47,0.00,,---,0.00,VWS V14.01,2013-04-26 16:40:00,
2013-04-26 12:45:00,57.8,38.3,30.43,WNW,286,2.0,3.0,48,0.00,,---,0.00,VWS V14.01,2013-04-26 16:45:00,
2013-04-26 12:50:00,57.8,34.3,30.43,WNW,286,2.0,2.0,41,0.00,,---,0.00,VWS V14.01,2013-04-26 16:50:00,
2013-04-26 12:55:00,57.5,36.3,30.43,WNW,288,2.0,3.0,45,0.00,,---,0.00,VWS V14.01,2013-04-26 16:55:00,
2013-04-26 13:00:00,57.2,34.9,30.43,North,360,1.0,1.0,43,0.00,,---,0.00,VWS V14.01,2013-04-26 17:00:00,
2013-04-26 13:05:00,57.2,33.1,30.42,NE,49,0.0,1.0,40,0.00,,---,0.00,VWS V14.01,2013-04-26 17:05:00,
2013-04-26 13:10:00,57.4,34.5,30.43,NW,317,0.0,2.0,42,0.00,,---,0.00,VWS V14.01,2013-04-26 17:10:00,
2013-04-26 13:15:00,57.5,35.2,30.42,NNE,13,4.0,5.0,43,0.00,,---,0.00,VWS V14.01,2013-04-26 17:15:00,
2013-04-26 13:20:00,57.7,33.6,30.42,SE,139,1.0,1.0,40,0.00,,---,0.00,VWS V14.01,2013-04-26 17:20:00,
2013-04-26 13:25:00,58.4,36.6,30.41,SSE,159,3.0,5.0,44,0.00,,---,0.00,VWS V14.01,2013-04-26 17:25:00,
2013-04-26 13:30:00,58.5,33.0,30.41,NE,40,0.0,2.0,38,0.00,,---,0.00,VWS V14.01,2013-04-26 17:30:00,
2013-04-26 13:35:00,58.8,33.3,30.41,WNW,290,2.0,2.0,38,0.00,,---,0.00,VWS V14.01,2013-04-26 17:35:00,
2013-04-26 13:40:00,59.6,37.7,30.40,South,174,3.0,6.0,44,0.00,,---,0.00,VWS V14.01,2013-04-26 17:40:00,
2013-04-26 13:45:00,60.3,37.1,30.40,SSW,194,0.0,1.0,42,0.00,,---,0.00,VWS V14.01,2013-04-26 17:45:00,
2013-04-26 13:50:00,60.6,32.8,30.40,ENE,66,0.0,2.0,35,0.00,,---,0.00,VWS V14.01,2013-04-26 17:50:00,
2013-04-26 13:55:00,60.5,32.7,30.40,ENE,57,3.0,3.0,35,0.00,,---,0.00,VWS V14.01,2013-04-26 17:55:00,
2013-04-26 14:00:00,60.6,34.2,30.39,SE,140,2.0,3.0,37,0.00,,---,0.00,VWS V14.01,2013-04-26 18:00:00,
2013-04-26 14:05:00,61.1,35.3,30.40,SW,216,4.0,6.0,38,0.00,,---,0.00,VWS V14.01,2013-04-26 18:05:00,
2013-04-26 14:10:00,61.4,32.1,30.40,East,88,3.0,4.0,33,0.00,,---,0.00,VWS V14.01,2013-04-26 18:10:00,
2013-04-26 14:15:00,61.8,33.2,30.40,North,355,1.0,3.0,34,0.00,,---,0.00,VWS V14.01,2013-04-26 18:15:00,
2013-04-26 14:20:00,60.9,33.1,30.40,NNE,16,3.0,4.0,35,0.00,,---,0.00,VWS V14.01,2013-04-26 18:20:00,
2013-04-26 14:25:00,60.3,33.3,30.40,NNW,333,3.0,5.0,36,0.00,,---,0.00,VWS V14.01,2013-04-26 18:25:00,
2013-04-26 14:30:00,60.7,32.9,30.39,NNE,28,4.0,5.0,35,0.00,,---,0.00,VWS V14.01,2013-04-26 18:30:00,
2013-04-26 14:35:00,60.9,35.1,30.39,NNW,343,3.0,3.0,38,0.00,,---,0.00,VWS V14.01,2013-04-26 18:35:00,
2013-04-26 14:40:00,61.6,40.6,30.39,WSW,251,3.0,4.0,46,0.00,,---,0.00,VWS V14.01,2013-04-26 18:40:00,
2013-04-26 14:45:00,62.3,36.4,30.39,WNW,287,2.0,3.0,38,0.00,,---,0.00,VWS V14.01,2013-04-26 18:45:00,
2013-04-26 14:50:00,62.8,32.5,30.38,NE,38,0.0,1.0,32,0.00,,---,0.00,VWS V14.01,2013-04-26 18:50:00,
2013-04-26 14:55:00,62.4,34.4,30.38,ENE,66,3.0,6.0,35,0.00,,---,0.00,VWS V14.01,2013-04-26 18:55:00,
2013-04-26 15:00:00,62.3,39.5,30.38,SW,229,2.0,6.0,43,0.00,,---,0.00,VWS V14.01,2013-04-26 19:00:00,
2013-04-26 15:05:00,62.7,35.4,30.38,WNW,289,3.0,4.0,36,0.00,,---,0.00,VWS V14.01,2013-04-26 19:05:00,
2013-04-26 15:10:00,63.2,37.9,30.38,SSW,196,1.0,4.0,39,0.00,,---,0.00,VWS V14.01,2013-04-26 19:10:00,
2013-04-26 15:15:00,63.1,38.4,30.38,SW,221,1.0,3.0,40,0.00,,---,0.00,VWS V14.01,2013-04-26 19:15:00,
2013-04-26 15:20:00,63.1,36.4,30.38,SE,141,6.0,6.0,37,0.00,,---,0.00,VWS V14.01,2013-04-26 19:20:00,
2013-04-26 15:25:00,62.9,36.9,30.37,South,170,4.0,8.0,38,0.00,,---,0.00,VWS V14.01,2013-04-26 19:25:00,
2013-04-26 15:30:00,63.1,37.8,30.37,ESE,117,1.0,5.0,39,0.00,,---,0.00,VWS V14.01,2013-04-26 19:30:00,
2013-04-26 15:35:00,63.5,40.6,30.37,SW,222,4.0,6.0,43,0.00,,---,0.00,VWS V14.01,2013-04-26 19:35:00,
2013-04-26 15:40:00,63.8,40.3,30.37,SSW,194,3.0,5.0,42,0.00,,---,0.00,VWS V14.01,2013-04-26 19:40:00,
2013-04-26 15:45:00,63.3,35.9,30.37,South,174,0.0,1.0,36,0.00,,---,0.00,VWS V14.01,2013-04-26 19:45:00,
2013-04-26 15:50:00,63.5,39.4,30.37,WSW,246,1.0,3.0,41,0.00,,---,0.00,VWS V14.01,2013-04-26 19:50:00,
2013-04-26 15:55:00,63.7,36.3,30.37,SSE,148,5.0,6.0,36,0.00,,---,0.00,VWS V14.01,2013-04-26 19:55:00,
2013-04-26 16:00:00,63.9,37.1,30.37,SSE,150,3.0,4.0,37,0.00,,---,0.00,VWS V14.01,2013-04-26 20:00:00,
2013-04-26 16:05:00,63.7,36.3,30.36,East,94,3.0,6.0,36,0.00,,---,0.00,VWS V14.01,2013-04-26 20:05:00,
2013-04-26 16:10:00,63.4,37.4,30.36,SSE,168,5.0,6.0,38,0.00,,---,0.00,VWS V14.01,2013-04-26 20:10:00,
2013-04-26 16:15:00,63.4,39.9,30.35,SW,224,2.0,3.0,42,0.00,,---,0.00,VWS V14.01,2013-04-26 20:15:00,
2013-04-26 16:20:00,63.4,38.0,30.35,South,186,6.0,7.0,39,0.00,,---,0.00,VWS V14.01,2013-04-26 20:20:00,
2013-04-26 16:25:00,63.4,39.3,30.35,SE,128,6.0,8.0,41,0.00,,---,0.00,VWS V14.01,2013-04-26 20:25:00,
2013-04-26 16:30:00,63.6,38.2,30.34,South,191,4.0,5.0,39,0.00,,---,0.00,VWS V14.01,2013-04-26 20:30:00,
2013-04-26 16:35:00,63.8,38.4,30.34,South,170,4.0,6.0,39,0.00,,---,0.00,VWS V14.01,2013-04-26 20:35:00,
2013-04-26 16:40:00,63.8,37.0,30.34,South,180,3.0,3.0,37,0.00,,---,0.00,VWS V14.01,2013-04-26 20:40:00,
2013-04-26 16:45:00,63.6,36.2,30.34,SSE,160,4.0,6.0,36,0.00,,---,0.00,VWS V14.01,2013-04-26 20:45:00,
2013-04-26 16:50:00,63.3,36.6,30.34,SE,139,13.0,13.0,37,0.00,,---,0.00,VWS V14.01,2013-04-26 20:50:00,
2013-04-26 16:55:00,62.7,35.4,30.33,South,180,4.0,5.0,36,0.00,,---,0.00,VWS V14.01,2013-04-26 20:55:00,
2013-04-26 17:00:00,62.7,35.4,30.33,ESE,115,1.0,2.0,36,0.00,,---,0.00,VWS V14.01,2013-04-26 21:00:00,
2013-04-26 17:05:00,63.1,36.4,30.33,South,186,3.0,3.0,37,0.00,,---,0.00,VWS V14.01,2013-04-26 21:05:00,
2013-04-26 17:10:00,63.5,38.8,30.33,South,175,2.0,2.0,40,0.00,,---,0.00,VWS V14.01,2013-04-26 21:10:00,
2013-04-26 17:15:00,63.6,35.5,30.33,ESE,106,0.0,2.0,35,0.00,,---,0.00,VWS V14.01,2013-04-26 21:15:00,
2013-04-26 17:20:00,63.8,37.0,30.33,NE,40,0.0,0.0,37,0.00,,---,0.00,VWS V14.01,2013-04-26 21:20:00,
2013-04-26 17:25:00,64.0,37.2,30.33,South,180,2.0,2.0,37,0.00,,---,0.00,VWS V14.01,2013-04-26 21:25:00,
2013-04-26 17:30:00,63.9,37.1,30.33,SE,146,1.0,3.0,37,0.00,,---,0.00,VWS V14.01,2013-04-26 21:30:00,
2013-04-26 17:35:00,63.9,39.1,30.33,SSW,210,2.0,3.0,40,0.00,,---,0.00,VWS V14.01,2013-04-26 21:35:00,
2013-04-26 17:40:00,63.9,37.1,30.33,ESE,111,5.0,7.0,37,0.00,,---,0.00,VWS V14.01,2013-04-26 21:40:00,
2013-04-26 17:45:00,63.5,35.4,30.33,SSE,161,3.0,5.0,35,0.00,,---,0.00,VWS V14.01,2013-04-26 21:45:00,
2013-04-26 17:50:00,63.4,34.6,30.33,ESE,116,3.0,3.0,34,0.00,,---,0.00,VWS V14.01,2013-04-26 21:50:00,
2013-04-26 17:55:00,63.3,39.2,30.34,SE,142,3.0,3.0,41,0.00,,---,0.00,VWS V14.01,2013-04-26 21:55:00,
2013-04-26 18:00:00,63.2,37.2,30.33,SE,126,0.0,0.0,38,0.00,,---,0.00,VWS V14.01,2013-04-26 22:00:00,
2013-04-26 18:05:00,63.4,36.7,30.33,South,187,5.0,6.0,37,0.00,,---,0.00,VWS V14.01,2013-04-26 22:05:00,
2013-04-26 18:10:00,63.4,34.6,30.34,SE,136,3.0,7.0,34,0.00,,---,0.00,VWS V14.01,2013-04-26 22:10:00,
2013-04-26 18:15:00,63.0,34.9,30.34,SE,125,1.0,1.0,35,0.00,,---,0.00,VWS V14.01,2013-04-26 22:15:00,
2013-04-26 18:20:00,62.8,37.5,30.34,SE,143,2.0,2.0,39,0.00,,---,0.00,VWS V14.01,2013-04-26 22:20:00,
2013-04-26 18:25:00,62.7,35.4,30.34,South,169,4.0,5.0,36,0.00,,---,0.00,VWS V14.01,2013-04-26 22:25:00,
2013-04-26 18:30:00,62.3,36.4,30.34,South,183,1.0,1.0,38,0.00,,---,0.00,VWS V14.01,2013-04-26 22:30:00,
2013-04-26 18:35:00,62.2,36.3,30.34,South,180,3.0,4.0,38,0.00,,---,0.00,VWS V14.01,2013-04-26 22:35:00,
2013-04-26 18:40:00,62.2,34.9,30.34,ESE,120,3.0,5.0,36,0.00,,---,0.00,VWS V14.01,2013-04-26 22:40:00,
2013-04-26 18:45:00,62.1,36.2,30.34,SSE,148,1.0,1.0,38,0.00,,---,0.00,VWS V14.01,2013-04-26 22:45:00,
2013-04-26 18:50:00,62.1,36.9,30.34,SSW,199,0.0,0.0,39,0.00,,---,0.00,VWS V14.01,2013-04-26 22:50:00,
2013-04-26 18:55:00,62.0,34.8,30.34,North,360,0.0,0.0,36,0.00,,---,0.00,VWS V14.01,2013-04-26 22:55:00,
2013-04-26 19:00:00,61.8,36.0,30.34,South,171,0.0,0.0,38,0.00,,---,0.00,VWS V14.01,2013-04-26 23:00:00,
2013-04-26 19:05:00,61.4,34.9,30.34,SSW,195,0.0,0.0,37,0.00,,---,0.00,VWS V14.01,2013-04-26 23:05:00,
2013-04-26 19:10:00,61.2,35.4,30.34,South,190,2.0,3.0,38,0.00,,---,0.00,VWS V14.01,2013-04-26 23:10:00,
2013-04-26 19:15:00,61.0,34.6,30.35,ESE,121,0.0,0.0,37,0.00,,---,0.00,VWS V14.01,2013-04-26 23:15:00,
2013-04-26 19:20:00,60.8,33.7,30.35,SE,138,0.0,0.0,36,0.00,,---,0.00,VWS V14.01,2013-04-26 23:20:00,
2013-04-26 19:25:00,60.7,36.9,30.35,SE,138,0.0,1.0,41,0.00,,---,0.00,VWS V14.01,2013-04-26 23:25:00,
2013-04-26 19:29:00,60.5,34.8,30.35,South,172,0.0,0.0,38,0.00,,---,0.00,VWS V14.01,2013-04-26 23:29:00,
2013-04-26 19:34:00,60.3,36.5,30.35,South,172,0.0,0.0,41,0.00,,---,0.00,VWS V14.01,2013-04-26 23:34:00,
2013-04-26 19:39:00,59.7,36.6,30.35,South,172,1.0,1.0,42,0.00,,---,0.00,VWS V14.01,2013-04-26 23:39:00,
2013-04-26 19:44:00,59.3,38.0,30.36,South,172,1.0,1.0,45,0.00,,---,0.00,VWS V14.01,2013-04-26 23:44:00,
2013-04-26 19:49:00,58.6,36.2,30.36,South,172,1.0,1.0,43,0.00,,---,0.00,VWS V14.01,2013-04-26 23:49:00,
2013-04-26 20:05:00,56.5,34.9,30.37,SSE,163,1.0,2.0,44,0.00,,---,0.00,VWS V14.01,2013-04-27 00:05:00,
2013-04-26 20:10:00,56.1,35.1,30.37,SSE,163,2.0,2.0,45,0.00,,---,0.00,VWS V14.01,2013-04-27 00:10:00,
2013-04-26 20:15:00,55.7,34.7,30.37,SSE,163,2.0,2.0,45,0.00,,---,0.00,VWS V14.01,2013-04-27 00:15:00,
2013-04-26 20:20:00,55.3,34.9,30.37,SSE,163,0.0,1.0,46,0.00,,---,0.00,VWS V14.01,2013-04-27 00:20:00,
2013-04-26 20:25:00,54.9,36.1,30.37,SSE,163,0.0,1.0,49,0.00,,---,0.00,VWS V14.01,2013-04-27 00:25:00,
2013-04-26 20:30:00,54.6,35.3,30.37,SSE,163,1.0,2.0,48,0.00,,---,0.00,VWS V14.01,2013-04-27 00:30:00,
2013-04-26 20:35:00,54.5,34.7,30.38,SSE,163,0.0,0.0,47,0.00,,---,0.00,VWS V14.01,2013-04-27 00:35:00,
2013-04-26 20:40:00,54.3,35.0,30.38,SSE,163,1.0,1.0,48,0.00,,---,0.00,VWS V14.01,2013-04-27 00:40:00,
2013-04-26 20:45:00,54.2,34.4,30.38,SSE,163,0.0,0.0,47,0.00,,---,0.00,VWS V14.01,2013-04-27 00:45:00,
2013-04-26 20:50:00,54.0,34.8,30.38,SSE,163,0.0,0.0,48,0.00,,---,0.00,VWS V14.01,2013-04-27 00:50:00,
2013-04-26 20:55:00,53.9,34.2,30.38,SSE,163,0.0,0.0,47,0.00,,---,0.00,VWS V14.01,2013-04-27 00:55:00,
2013-04-26 21:00:00,53.8,34.6,30.38,SSE,163,0.0,0.0,48,0.00,,---,0.00,VWS V14.01,2013-04-27 01:00:00,
2013-04-26 21:05:00,53.7,35.5,30.38,SSE,163,0.0,2.0,50,0.00,,---,0.00,VWS V14.01,2013-04-27 01:05:00,
2013-04-26 21:10:00,53.6,34.9,30.39,SSE,163,0.0,0.0,49,0.00,,---,0.00,VWS V14.01,2013-04-27 01:10:00,
2013-04-26 21:15:00,53.4,35.2,30.39,SSE,163,0.0,0.0,50,0.00,,---,0.00,VWS V14.01,2013-04-27 01:15:00,
2013-04-26 21:20:00,53.2,36.5,30.39,SSE,163,1.0,2.0,53,0.00,,---,0.00,VWS V14.01,2013-04-27 01:20:00,
2013-04-26 21:25:00,52.6,35.5,30.40,SSE,163,0.0,1.0,52,0.00,,---,0.00,VWS V14.01,2013-04-27 01:25:00,
2013-04-26 21:30:00,52.4,35.3,30.40,SSE,163,0.0,0.0,52,0.00,,---,0.00,VWS V14.01,2013-04-27 01:30:00,
2013-04-26 21:35:00,52.1,35.0,30.40,SSE,163,0.0,0.0,52,0.00,,---,0.00,VWS V14.01,2013-04-27 01:35:00,
2013-04-26 21:40:00,51.8,35.7,30.40,SSE,163,0.0,0.0,54,0.00,,---,0.00,VWS V14.01,2013-04-27 01:40:00,
2013-04-26 21:45:00,51.3,35.7,30.40,SSE,163,0.0,1.0,55,0.00,,---,0.00,VWS V14.01,2013-04-27 01:45:00,
2013-04-26 21:50:00,50.9,36.2,30.40,SSE,163,0.0,1.0,57,0.00,,---,0.00,VWS V14.01,2013-04-27 01:50:00,
2013-04-26 21:55:00,50.5,35.8,30.40,SSE,163,1.0,1.0,57,0.00,,---,0.00,VWS V14.01,2013-04-27 01:55:00,
2013-04-26 22:00:00,50.1,35.9,30.40,SSE,162,1.0,1.0,58,0.00,,---,0.00,VWS V14.01,2013-04-27 02:00:00,
2013-04-26 22:05:00,49.8,35.6,30.40,SSE,162,0.0,0.0,58,0.00,,---,0.00,VWS V14.01,2013-04-27 02:05:00,
2013-04-26 22:10:00,49.8,35.2,30.41,SSE,162,0.0,0.0,57,0.00,,---,0.00,VWS V14.01,2013-04-27 02:10:00,
2013-04-26 22:15:00,49.8,35.6,30.40,SSE,162,0.0,1.0,58,0.00,,---,0.00,VWS V14.01,2013-04-27 02:15:00,
2013-04-26 22:20:00,49.6,35.9,30.40,SSE,162,2.0,2.0,59,0.00,,---,0.00,VWS V14.01,2013-04-27 02:20:00,
2013-04-26 22:25:00,49.4,36.1,30.40,South,188,0.0,0.0,60,0.00,,---,0.00,VWS V14.01,2013-04-27 02:25:00,
2013-04-26 22:30:00,49.1,35.8,30.40,South,188,0.0,0.0,60,0.00,,---,0.00,VWS V14.01,2013-04-27 02:30:00,
2013-04-26 22:35:00,48.8,35.5,30.40,South,188,0.0,1.0,60,0.00,,---,0.00,VWS V14.01,2013-04-27 02:35:00,
2013-04-26 22:40:00,48.6,34.9,30.40,South,188,0.0,0.0,59,0.00,,---,0.00,VWS V14.01,2013-04-27 02:40:00,
2013-04-26 22:45:00,48.3,35.1,30.40,South,188,0.0,0.0,60,0.00,,---,0.00,VWS V14.01,2013-04-27 02:45:00,
2013-04-26 22:50:00,48.2,35.4,30.40,South,188,0.0,0.0,61,0.00,,---,0.00,VWS V14.01,2013-04-27 02:50:00,
2013-04-26 22:55:00,48.0,34.8,30.40,South,188,0.0,0.0,60,0.00,,---,0.00,VWS V14.01,2013-04-27 02:55:00,
2013-04-26 23:00:00,47.8,35.0,30.40,South,188,0.0,0.0,61,0.00,,---,0.00,VWS V14.01,2013-04-27 03:00:00,
2013-04-26 23:05:00,47.7,35.3,30.40,South,188,0.0,0.0,62,0.00,,---,0.00,VWS V14.01,2013-04-27 03:05:00,
2013-04-26 23:10:00,47.4,35.8,30.40,South,188,2.0,2.0,64,0.00,,---,0.00,VWS V14.01,2013-04-27 03:10:00,
2013-04-26 23:15:00,47.2,36.0,30.40,South,188,0.0,0.0,65,0.00,,---,0.00,VWS V14.01,2013-04-27 03:15:00,
2013-04-26 23:20:00,46.9,35.4,30.40,South,188,2.0,2.0,64,0.00,,---,0.00,VWS V14.01,2013-04-27 03:20:00,
2013-04-26 23:25:00,46.6,35.5,30.40,South,188,0.0,0.0,65,0.00,,---,0.00,VWS V14.01,2013-04-27 03:25:00,
2013-04-26 23:30:00,46.4,34.9,30.40,South,188,0.0,1.0,64,0.00,,---,0.00,VWS V14.01,2013-04-27 03:30:00,
2013-04-26 23:35:00,46.2,34.7,30.40,South,188,0.0,0.0,64,0.00,,---,0.00,VWS V14.01,2013-04-27 03:35:00,
2013-04-26 23:40:00,46.0,34.5,30.40,South,188,0.0,0.0,64,0.00,,---,0.00,VWS V14.01,2013-04-27 03:40:00,
2013-04-26 23:45:00,45.7,34.6,30.40,South,188,0.0,0.0,65,0.00,,---,0.00,VWS V14.01,2013-04-27 03:45:00,
2013-04-26 23:50:00,45.4,34.7,30.40,South,188,0.0,0.0,66,0.00,,---,0.00,VWS V14.01,2013-04-27 03:50:00,
2013-04-26 23:55:00,45.1,34.8,30.40,South,188,0.0,0.0,67,0.00,,---,0.00,VWS V14.01,2013-04-27 03:55:00,